sensor_id;sensor_type;location;lat;lon;timestamp;P1;durP1;ratioP1;P2;durP2;ratioP2
11743;SDS011;5929;51.906;7.674;2023-04-09T00:00:06;35.67;;;20.50;;
11743;SDS011;5929;51.906;7.674;2023-04-09T00:02:34;37.33;;;21.85;;
11743;SDS011;5929;51.906;7.674;2023-04-09T00:05:02;37.92;;;22.13;;
11743;SDS011;5929;51.906;7.674;2023-04-09T00:07:29;39.90;;;21.52;;
11743;SDS011;5929;51.906;7.674;2023-04-09T00:09:56;38.90;;;22.98;;
11743;SDS011;5929;51.906;7.674;2023-04-09T00:12:24;35.00;;;21.80;;
11743;SDS011;5929;51.906;7.674;2023-04-09T00:14:51;37.70;;;22.75;;
11743;SDS011;5929;51.906;7.674;2023-04-09T00:17:17;43.53;;;24.08;;
11743;SDS011;5929;51.906;7.674;2023-04-09T00:19:44;43.50;;;22.95;;
11743;SDS011;5929;51.906;7.674;2023-04-09T00:22:11;38.92;;;22.98;;
11743;SDS011;5929;51.906;7.674;2023-04-09T00:24:39;41.75;;;23.77;;
11743;SDS011;5929;51.906;7.674;2023-04-09T00:27:05;37.00;;;22.70;;
11743;SDS011;5929;51.906;7.674;2023-04-09T00:29:33;42.25;;;23.80;;
11743;SDS011;5929;51.906;7.674;2023-04-09T00:32:00;41.38;;;23.50;;
11743;SDS011;5929;51.906;7.674;2023-04-09T00:34:27;39.95;;;22.67;;
11743;SDS011;5929;51.906;7.674;2023-04-09T00:36:54;47.22;;;25.23;;
11743;SDS011;5929;51.906;7.674;2023-04-09T00:39:21;43.80;;;23.58;;
11743;SDS011;5929;51.906;7.674;2023-04-09T00:41:47;41.42;;;24.38;;
11743;SDS011;5929;51.906;7.674;2023-04-09T00:44:14;43.22;;;25.05;;
11743;SDS011;5929;51.906;7.674;2023-04-09T00:46:42;41.97;;;24.50;;
11743;SDS011;5929;51.906;7.674;2023-04-09T00:49:10;39.88;;;24.92;;
11743;SDS011;5929;51.906;7.674;2023-04-09T00:51:36;44.05;;;24.23;;
11743;SDS011;5929;51.906;7.674;2023-04-09T00:54:03;43.28;;;24.65;;
11743;SDS011;5929;51.906;7.674;2023-04-09T00:56:30;42.90;;;23.73;;
11743;SDS011;5929;51.906;7.674;2023-04-09T00:58:58;42.47;;;25.27;;
11743;SDS011;5929;51.906;7.674;2023-04-09T01:01:28;46.60;;;25.95;;
11743;SDS011;5929;51.906;7.674;2023-04-09T01:03:56;44.42;;;26.40;;
11743;SDS011;5929;51.906;7.674;2023-04-09T01:06:25;46.30;;;25.95;;
11743;SDS011;5929;51.906;7.674;2023-04-09T01:09:01;44.55;;;26.17;;
11743;SDS011;5929;51.906;7.674;2023-04-09T01:11:34;45.83;;;25.88;;
11743;SDS011;5929;51.906;7.674;2023-04-09T01:14:05;46.53;;;26.77;;
11743;SDS011;5929;51.906;7.674;2023-04-09T01:16:37;48.55;;;27.58;;
11743;SDS011;5929;51.906;7.674;2023-04-09T01:19:14;51.40;;;26.45;;
11743;SDS011;5929;51.906;7.674;2023-04-09T01:21:54;46.03;;;26.33;;
11743;SDS011;5929;51.906;7.674;2023-04-09T01:24:30;47.63;;;26.17;;
11743;SDS011;5929;51.906;7.674;2023-04-09T01:27:06;51.92;;;27.88;;
11743;SDS011;5929;51.906;7.674;2023-04-09T01:29:37;50.33;;;29.20;;
11743;SDS011;5929;51.906;7.674;2023-04-09T01:32:06;57.25;;;29.67;;
11743;SDS011;5929;51.906;7.674;2023-04-09T01:34:34;50.92;;;29.02;;
11743;SDS011;5929;51.906;7.674;2023-04-09T01:37:02;54.25;;;28.98;;
11743;SDS011;5929;51.906;7.674;2023-04-09T01:39:31;53.85;;;28.52;;
11743;SDS011;5929;51.906;7.674;2023-04-09T01:41:58;49.28;;;27.80;;
11743;SDS011;5929;51.906;7.674;2023-04-09T01:44:26;54.30;;;29.33;;
11743;SDS011;5929;51.906;7.674;2023-04-09T01:46:55;50.20;;;28.02;;
11743;SDS011;5929;51.906;7.674;2023-04-09T01:49:24;54.95;;;29.08;;
11743;SDS011;5929;51.906;7.674;2023-04-09T01:51:51;54.38;;;29.35;;
11743;SDS011;5929;51.906;7.674;2023-04-09T01:54:19;50.83;;;28.35;;
11743;SDS011;5929;51.906;7.674;2023-04-09T01:56:46;53.08;;;28.85;;
11743;SDS011;5929;51.906;7.674;2023-04-09T01:59:14;49.22;;;27.70;;
11743;SDS011;5929;51.906;7.674;2023-04-09T02:01:44;52.00;;;29.58;;
11743;SDS011;5929;51.906;7.674;2023-04-09T02:04:16;50.45;;;28.20;;
11743;SDS011;5929;51.906;7.674;2023-04-09T02:06:50;55.50;;;29.98;;
11743;SDS011;5929;51.906;7.674;2023-04-09T02:09:23;56.00;;;31.40;;
11743;SDS011;5929;51.906;7.674;2023-04-09T02:11:52;58.13;;;30.13;;
11743;SDS011;5929;51.906;7.674;2023-04-09T02:14:23;56.10;;;31.40;;
11743;SDS011;5929;51.906;7.674;2023-04-09T02:16:52;57.15;;;30.67;;
11743;SDS011;5929;51.906;7.674;2023-04-09T02:19:21;53.88;;;30.92;;
11743;SDS011;5929;51.906;7.674;2023-04-09T02:21:47;54.00;;;31.17;;
11743;SDS011;5929;51.906;7.674;2023-04-09T02:24:14;62.13;;;31.58;;
11743;SDS011;5929;51.906;7.674;2023-04-09T02:26:41;55.58;;;30.17;;
11743;SDS011;5929;51.906;7.674;2023-04-09T02:29:08;57.13;;;30.45;;
11743;SDS011;5929;51.906;7.674;2023-04-09T02:31:34;58.75;;;31.00;;
11743;SDS011;5929;51.906;7.674;2023-04-09T02:34:01;56.15;;;30.70;;
11743;SDS011;5929;51.906;7.674;2023-04-09T02:36:29;51.85;;;29.55;;
11743;SDS011;5929;51.906;7.674;2023-04-09T02:38:56;54.85;;;30.95;;
11743;SDS011;5929;51.906;7.674;2023-04-09T02:41:23;54.67;;;30.63;;
11743;SDS011;5929;51.906;7.674;2023-04-09T02:43:50;58.78;;;31.23;;
11743;SDS011;5929;51.906;7.674;2023-04-09T02:46:16;58.55;;;32.60;;
11743;SDS011;5929;51.906;7.674;2023-04-09T02:48:43;54.85;;;30.75;;
11743;SDS011;5929;51.906;7.674;2023-04-09T02:51:13;60.53;;;31.88;;
11743;SDS011;5929;51.906;7.674;2023-04-09T02:53:41;55.00;;;31.13;;
11743;SDS011;5929;51.906;7.674;2023-04-09T02:56:09;59.42;;;30.90;;
11743;SDS011;5929;51.906;7.674;2023-04-09T02:58:36;55.45;;;29.70;;
11743;SDS011;5929;51.906;7.674;2023-04-09T03:01:03;57.17;;;30.80;;
11743;SDS011;5929;51.906;7.674;2023-04-09T03:03:30;56.90;;;31.23;;
11743;SDS011;5929;51.906;7.674;2023-04-09T03:05:57;62.70;;;32.85;;
11743;SDS011;5929;51.906;7.674;2023-04-09T03:08:23;55.30;;;30.33;;
11743;SDS011;5929;51.906;7.674;2023-04-09T03:10:52;56.80;;;31.33;;
11743;SDS011;5929;51.906;7.674;2023-04-09T03:13:18;63.30;;;33.25;;
11743;SDS011;5929;51.906;7.674;2023-04-09T03:15:49;58.67;;;32.83;;
11743;SDS011;5929;51.906;7.674;2023-04-09T03:18:16;58.88;;;32.83;;
11743;SDS011;5929;51.906;7.674;2023-04-09T03:20:43;58.78;;;32.28;;
11743;SDS011;5929;51.906;7.674;2023-04-09T03:23:10;60.08;;;31.65;;
11743;SDS011;5929;51.906;7.674;2023-04-09T03:25:37;60.15;;;33.13;;
11743;SDS011;5929;51.906;7.674;2023-04-09T03:28:06;57.40;;;31.60;;
11743;SDS011;5929;51.906;7.674;2023-04-09T03:30:33;55.95;;;31.65;;
11743;SDS011;5929;51.906;7.674;2023-04-09T03:33:00;56.85;;;31.13;;
11743;SDS011;5929;51.906;7.674;2023-04-09T03:35:27;58.92;;;31.80;;
11743;SDS011;5929;51.906;7.674;2023-04-09T03:37:54;60.83;;;33.40;;
11743;SDS011;5929;51.906;7.674;2023-04-09T03:40:20;59.53;;;34.17;;
11743;SDS011;5929;51.906;7.674;2023-04-09T03:42:47;64.38;;;34.55;;
11743;SDS011;5929;51.906;7.674;2023-04-09T03:45:16;61.85;;;34.75;;
11743;SDS011;5929;51.906;7.674;2023-04-09T03:47:43;63.22;;;33.78;;
11743;SDS011;5929;51.906;7.674;2023-04-09T03:50:10;63.83;;;33.92;;
11743;SDS011;5929;51.906;7.674;2023-04-09T03:52:37;63.40;;;34.58;;
11743;SDS011;5929;51.906;7.674;2023-04-09T03:55:05;63.45;;;33.97;;
11743;SDS011;5929;51.906;7.674;2023-04-09T03:57:33;64.13;;;34.58;;
11743;SDS011;5929;51.906;7.674;2023-04-09T04:00:00;67.63;;;36.10;;
11743;SDS011;5929;51.906;7.674;2023-04-09T04:02:29;66.43;;;36.25;;
11743;SDS011;5929;51.906;7.674;2023-04-09T04:04:57;63.05;;;34.30;;
11743;SDS011;5929;51.906;7.674;2023-04-09T04:07:24;71.75;;;35.38;;
11743;SDS011;5929;51.906;7.674;2023-04-09T04:09:51;65.00;;;35.63;;
11743;SDS011;5929;51.906;7.674;2023-04-09T04:12:18;66.20;;;34.92;;
11743;SDS011;5929;51.906;7.674;2023-04-09T04:14:45;63.53;;;35.25;;
11743;SDS011;5929;51.906;7.674;2023-04-09T04:17:12;61.30;;;33.38;;
11743;SDS011;5929;51.906;7.674;2023-04-09T04:19:40;66.47;;;34.25;;
11743;SDS011;5929;51.906;7.674;2023-04-09T04:22:07;67.10;;;35.00;;
11743;SDS011;5929;51.906;7.674;2023-04-09T04:24:34;66.18;;;35.28;;
11743;SDS011;5929;51.906;7.674;2023-04-09T04:27:01;53.13;;;32.17;;
11743;SDS011;5929;51.906;7.674;2023-04-09T04:29:29;61.28;;;34.65;;
11743;SDS011;5929;51.906;7.674;2023-04-09T04:31:56;66.45;;;36.20;;
11743;SDS011;5929;51.906;7.674;2023-04-09T04:34:23;65.18;;;34.97;;
11743;SDS011;5929;51.906;7.674;2023-04-09T04:36:51;74.95;;;37.08;;
11743;SDS011;5929;51.906;7.674;2023-04-09T04:39:18;72.22;;;37.35;;
11743;SDS011;5929;51.906;7.674;2023-04-09T04:41:45;68.30;;;36.65;;
11743;SDS011;5929;51.906;7.674;2023-04-09T04:44:12;66.68;;;37.05;;
11743;SDS011;5929;51.906;7.674;2023-04-09T04:46:39;66.80;;;35.83;;
11743;SDS011;5929;51.906;7.674;2023-04-09T04:49:06;66.00;;;35.55;;
11743;SDS011;5929;51.906;7.674;2023-04-09T04:51:33;68.72;;;36.13;;
11743;SDS011;5929;51.906;7.674;2023-04-09T04:54:01;69.65;;;35.95;;
11743;SDS011;5929;51.906;7.674;2023-04-09T04:56:28;68.10;;;38.22;;
11743;SDS011;5929;51.906;7.674;2023-04-09T04:58:55;70.60;;;38.33;;
11743;SDS011;5929;51.906;7.674;2023-04-09T05:01:22;70.05;;;39.10;;
11743;SDS011;5929;51.906;7.674;2023-04-09T05:03:49;69.93;;;37.60;;
11743;SDS011;5929;51.906;7.674;2023-04-09T05:06:18;71.55;;;38.00;;
11743;SDS011;5929;51.906;7.674;2023-04-09T05:08:45;68.75;;;36.50;;
11743;SDS011;5929;51.906;7.674;2023-04-09T05:11:13;71.60;;;37.88;;
11743;SDS011;5929;51.906;7.674;2023-04-09T05:13:41;71.22;;;38.22;;
11743;SDS011;5929;51.906;7.674;2023-04-09T05:16:07;74.47;;;37.83;;
11743;SDS011;5929;51.906;7.674;2023-04-09T05:18:42;69.88;;;37.90;;
11743;SDS011;5929;51.906;7.674;2023-04-09T05:21:09;73.57;;;37.92;;
11743;SDS011;5929;51.906;7.674;2023-04-09T05:23:36;75.03;;;39.15;;
11743;SDS011;5929;51.906;7.674;2023-04-09T05:26:05;69.05;;;37.83;;
11743;SDS011;5929;51.906;7.674;2023-04-09T05:28:33;74.28;;;40.42;;
11743;SDS011;5929;51.906;7.674;2023-04-09T05:31:00;77.03;;;39.50;;
11743;SDS011;5929;51.906;7.674;2023-04-09T05:33:27;79.68;;;40.20;;
11743;SDS011;5929;51.906;7.674;2023-04-09T05:35:54;77.15;;;39.17;;
11743;SDS011;5929;51.906;7.674;2023-04-09T05:38:20;80.38;;;41.65;;
11743;SDS011;5929;51.906;7.674;2023-04-09T05:40:47;76.57;;;41.60;;
11743;SDS011;5929;51.906;7.674;2023-04-09T05:43:14;75.60;;;39.08;;
11743;SDS011;5929;51.906;7.674;2023-04-09T05:45:42;72.95;;;37.80;;
11743;SDS011;5929;51.906;7.674;2023-04-09T05:48:09;70.65;;;37.45;;
11743;SDS011;5929;51.906;7.674;2023-04-09T05:50:36;64.25;;;32.92;;
11743;SDS011;5929;51.906;7.674;2023-04-09T05:53:03;64.05;;;35.38;;
11743;SDS011;5929;51.906;7.674;2023-04-09T05:55:30;72.82;;;38.95;;
11743;SDS011;5929;51.906;7.674;2023-04-09T05:57:57;73.75;;;37.83;;
11743;SDS011;5929;51.906;7.674;2023-04-09T06:00:24;70.97;;;37.22;;
11743;SDS011;5929;51.906;7.674;2023-04-09T06:02:52;71.30;;;39.08;;
11743;SDS011;5929;51.906;7.674;2023-04-09T06:05:19;72.13;;;39.03;;
11743;SDS011;5929;51.906;7.674;2023-04-09T06:07:46;76.50;;;41.35;;
11743;SDS011;5929;51.906;7.674;2023-04-09T06:10:12;75.35;;;40.80;;
11743;SDS011;5929;51.906;7.674;2023-04-09T06:12:39;79.30;;;42.70;;
11743;SDS011;5929;51.906;7.674;2023-04-09T06:15:06;72.57;;;41.17;;
11743;SDS011;5929;51.906;7.674;2023-04-09T06:17:33;75.00;;;40.10;;
11743;SDS011;5929;51.906;7.674;2023-04-09T06:20:01;81.45;;;40.80;;
11743;SDS011;5929;51.906;7.674;2023-04-09T06:22:29;74.55;;;41.05;;
11743;SDS011;5929;51.906;7.674;2023-04-09T06:24:55;84.18;;;41.88;;
11743;SDS011;5929;51.906;7.674;2023-04-09T06:27:22;80.97;;;41.67;;
11743;SDS011;5929;51.906;7.674;2023-04-09T06:29:50;74.03;;;41.08;;
11743;SDS011;5929;51.906;7.674;2023-04-09T06:32:17;75.72;;;41.50;;
11743;SDS011;5929;51.906;7.674;2023-04-09T06:34:46;81.47;;;42.83;;
11743;SDS011;5929;51.906;7.674;2023-04-09T06:37:14;77.80;;;42.10;;
11743;SDS011;5929;51.906;7.674;2023-04-09T06:39:41;81.70;;;40.95;;
11743;SDS011;5929;51.906;7.674;2023-04-09T06:42:08;79.22;;;43.63;;
11743;SDS011;5929;51.906;7.674;2023-04-09T06:44:35;72.47;;;41.00;;
11743;SDS011;5929;51.906;7.674;2023-04-09T06:47:02;73.20;;;40.17;;
11743;SDS011;5929;51.906;7.674;2023-04-09T06:49:28;76.28;;;41.20;;
11743;SDS011;5929;51.906;7.674;2023-04-09T06:51:57;80.35;;;42.25;;
11743;SDS011;5929;51.906;7.674;2023-04-09T06:54:26;77.68;;;42.15;;
11743;SDS011;5929;51.906;7.674;2023-04-09T06:56:52;76.53;;;39.03;;
11743;SDS011;5929;51.906;7.674;2023-04-09T06:59:19;76.70;;;40.65;;
11743;SDS011;5929;51.906;7.674;2023-04-09T07:01:46;75.97;;;42.08;;
11743;SDS011;5929;51.906;7.674;2023-04-09T07:04:13;83.07;;;43.78;;
11743;SDS011;5929;51.906;7.674;2023-04-09T07:06:40;75.32;;;41.83;;
11743;SDS011;5929;51.906;7.674;2023-04-09T07:09:06;68.82;;;38.58;;
11743;SDS011;5929;51.906;7.674;2023-04-09T07:11:35;73.47;;;40.38;;
11743;SDS011;5929;51.906;7.674;2023-04-09T07:14:01;79.22;;;40.85;;
11743;SDS011;5929;51.906;7.674;2023-04-09T07:16:28;72.65;;;41.03;;
11743;SDS011;5929;51.906;7.674;2023-04-09T07:18:55;77.85;;;42.47;;
11743;SDS011;5929;51.906;7.674;2023-04-09T07:21:22;67.85;;;39.53;;
11743;SDS011;5929;51.906;7.674;2023-04-09T07:23:49;67.38;;;40.00;;
11743;SDS011;5929;51.906;7.674;2023-04-09T07:26:16;66.95;;;38.65;;
11743;SDS011;5929;51.906;7.674;2023-04-09T07:28:44;62.85;;;37.47;;
11743;SDS011;5929;51.906;7.674;2023-04-09T07:31:11;64.80;;;36.22;;
11743;SDS011;5929;51.906;7.674;2023-04-09T07:33:38;63.33;;;35.45;;
11743;SDS011;5929;51.906;7.674;2023-04-09T07:36:04;59.72;;;35.80;;
11743;SDS011;5929;51.906;7.674;2023-04-09T07:38:32;58.85;;;34.10;;
11743;SDS011;5929;51.906;7.674;2023-04-09T07:40:59;60.85;;;33.47;;
11743;SDS011;5929;51.906;7.674;2023-04-09T07:43:26;63.58;;;34.30;;
11743;SDS011;5929;51.906;7.674;2023-04-09T07:45:54;54.92;;;32.90;;
11743;SDS011;5929;51.906;7.674;2023-04-09T07:48:21;58.75;;;34.05;;
11743;SDS011;5929;51.906;7.674;2023-04-09T07:50:48;56.03;;;31.52;;
11743;SDS011;5929;51.906;7.674;2023-04-09T07:53:15;52.60;;;31.58;;
11743;SDS011;5929;51.906;7.674;2023-04-09T07:55:42;45.30;;;29.33;;
11743;SDS011;5929;51.906;7.674;2023-04-09T07:58:09;51.75;;;30.15;;
11743;SDS011;5929;51.906;7.674;2023-04-09T08:00:36;52.00;;;30.70;;
11743;SDS011;5929;51.906;7.674;2023-04-09T08:03:04;53.58;;;33.10;;
11743;SDS011;5929;51.906;7.674;2023-04-09T08:05:31;48.78;;;28.85;;
11743;SDS011;5929;51.906;7.674;2023-04-09T08:07:57;47.67;;;29.20;;
11743;SDS011;5929;51.906;7.674;2023-04-09T08:10:24;44.88;;;27.38;;
11743;SDS011;5929;51.906;7.674;2023-04-09T08:12:51;44.08;;;27.60;;
11743;SDS011;5929;51.906;7.674;2023-04-09T08:15:18;41.85;;;25.58;;
11743;SDS011;5929;51.906;7.674;2023-04-09T08:17:46;39.20;;;24.02;;
11743;SDS011;5929;51.906;7.674;2023-04-09T08:20:14;39.25;;;24.83;;
11743;SDS011;5929;51.906;7.674;2023-04-09T08:22:42;31.17;;;20.20;;
11743;SDS011;5929;51.906;7.674;2023-04-09T08:25:09;34.40;;;21.48;;
11743;SDS011;5929;51.906;7.674;2023-04-09T08:27:38;39.95;;;25.08;;
11743;SDS011;5929;51.906;7.674;2023-04-09T08:30:05;35.88;;;22.20;;
11743;SDS011;5929;51.906;7.674;2023-04-09T08:32:33;37.00;;;21.50;;
11743;SDS011;5929;51.906;7.674;2023-04-09T08:35:00;35.80;;;21.80;;
11743;SDS011;5929;51.906;7.674;2023-04-09T08:37:28;32.45;;;20.75;;
11743;SDS011;5929;51.906;7.674;2023-04-09T08:39:55;31.20;;;20.42;;
11743;SDS011;5929;51.906;7.674;2023-04-09T08:42:22;30.17;;;19.33;;
11743;SDS011;5929;51.906;7.674;2023-04-09T08:44:50;31.13;;;20.33;;
11743;SDS011;5929;51.906;7.674;2023-04-09T08:47:18;34.05;;;20.20;;
11743;SDS011;5929;51.906;7.674;2023-04-09T08:49:45;31.98;;;20.77;;
11743;SDS011;5929;51.906;7.674;2023-04-09T08:52:14;30.52;;;20.15;;
11743;SDS011;5929;51.906;7.674;2023-04-09T08:54:47;29.08;;;18.67;;
11743;SDS011;5929;51.906;7.674;2023-04-09T08:57:16;31.23;;;19.75;;
11743;SDS011;5929;51.906;7.674;2023-04-09T08:59:45;36.42;;;21.70;;
11743;SDS011;5929;51.906;7.674;2023-04-09T09:02:12;28.95;;;19.40;;
11743;SDS011;5929;51.906;7.674;2023-04-09T09:04:43;30.98;;;19.52;;
11743;SDS011;5929;51.906;7.674;2023-04-09T09:07:11;28.58;;;18.77;;
11743;SDS011;5929;51.906;7.674;2023-04-09T09:09:50;29.40;;;18.55;;
11743;SDS011;5929;51.906;7.674;2023-04-09T09:12:34;27.48;;;18.65;;
11743;SDS011;5929;51.906;7.674;2023-04-09T09:15:02;24.85;;;16.60;;
11743;SDS011;5929;51.906;7.674;2023-04-09T09:17:30;24.13;;;16.02;;
11743;SDS011;5929;51.906;7.674;2023-04-09T09:19:57;22.17;;;14.25;;
11743;SDS011;5929;51.906;7.674;2023-04-09T09:22:24;24.27;;;16.38;;
11743;SDS011;5929;51.906;7.674;2023-04-09T09:24:52;24.88;;;16.45;;
11743;SDS011;5929;51.906;7.674;2023-04-09T09:27:32;24.52;;;15.85;;
11743;SDS011;5929;51.906;7.674;2023-04-09T09:30:00;21.40;;;15.02;;
11743;SDS011;5929;51.906;7.674;2023-04-09T09:32:29;22.60;;;14.90;;
11743;SDS011;5929;51.906;7.674;2023-04-09T09:34:58;20.55;;;14.60;;
11743;SDS011;5929;51.906;7.674;2023-04-09T09:37:31;25.48;;;15.45;;
11743;SDS011;5929;51.906;7.674;2023-04-09T09:39:59;20.45;;;14.70;;
11743;SDS011;5929;51.906;7.674;2023-04-09T09:42:26;20.38;;;14.18;;
11743;SDS011;5929;51.906;7.674;2023-04-09T09:44:53;20.15;;;13.82;;
11743;SDS011;5929;51.906;7.674;2023-04-09T09:47:20;22.08;;;14.25;;
11743;SDS011;5929;51.906;7.674;2023-04-09T09:49:49;19.70;;;13.68;;
11743;SDS011;5929;51.906;7.674;2023-04-09T09:52:19;21.30;;;14.80;;
11743;SDS011;5929;51.906;7.674;2023-04-09T09:54:50;21.45;;;14.68;;
11743;SDS011;5929;51.906;7.674;2023-04-09T09:57:19;21.85;;;15.43;;
11743;SDS011;5929;51.906;7.674;2023-04-09T09:59:50;22.45;;;14.95;;
11743;SDS011;5929;51.906;7.674;2023-04-09T10:02:20;21.92;;;15.15;;
11743;SDS011;5929;51.906;7.674;2023-04-09T10:04:50;20.17;;;14.07;;
11743;SDS011;5929;51.906;7.674;2023-04-09T10:07:18;21.00;;;15.43;;
11743;SDS011;5929;51.906;7.674;2023-04-09T10:09:47;21.15;;;14.95;;
11743;SDS011;5929;51.906;7.674;2023-04-09T10:12:15;20.15;;;14.05;;
11743;SDS011;5929;51.906;7.674;2023-04-09T10:14:49;20.95;;;14.00;;
11743;SDS011;5929;51.906;7.674;2023-04-09T10:17:17;22.75;;;13.38;;
11743;SDS011;5929;51.906;7.674;2023-04-09T10:19:46;18.23;;;12.80;;
11743;SDS011;5929;51.906;7.674;2023-04-09T10:22:20;19.95;;;13.27;;
11743;SDS011;5929;51.906;7.674;2023-04-09T10:24:51;22.08;;;14.65;;
11743;SDS011;5929;51.906;7.674;2023-04-09T10:27:21;19.50;;;13.35;;
11743;SDS011;5929;51.906;7.674;2023-04-09T10:29:48;19.52;;;13.52;;
11743;SDS011;5929;51.906;7.674;2023-04-09T10:32:17;18.67;;;13.45;;
11743;SDS011;5929;51.906;7.674;2023-04-09T10:34:46;15.70;;;12.00;;
11743;SDS011;5929;51.906;7.674;2023-04-09T10:37:15;16.50;;;12.15;;
11743;SDS011;5929;51.906;7.674;2023-04-09T10:39:46;16.73;;;11.90;;
11743;SDS011;5929;51.906;7.674;2023-04-09T10:42:14;17.63;;;12.75;;
11743;SDS011;5929;51.906;7.674;2023-04-09T10:44:45;16.80;;;12.10;;
11743;SDS011;5929;51.906;7.674;2023-04-09T10:47:30;15.70;;;11.07;;
11743;SDS011;5929;51.906;7.674;2023-04-09T10:50:04;15.25;;;11.05;;
11743;SDS011;5929;51.906;7.674;2023-04-09T10:52:40;14.90;;;10.50;;
11743;SDS011;5929;51.906;7.674;2023-04-09T10:55:08;16.75;;;11.45;;
11743;SDS011;5929;51.906;7.674;2023-04-09T10:57:35;14.98;;;10.85;;
11743;SDS011;5929;51.906;7.674;2023-04-09T11:00:04;18.40;;;12.40;;
11743;SDS011;5929;51.906;7.674;2023-04-09T11:02:49;17.45;;;12.80;;
11743;SDS011;5929;51.906;7.674;2023-04-09T11:05:31;16.92;;;12.13;;
11743;SDS011;5929;51.906;7.674;2023-04-09T11:08:02;15.43;;;11.45;;
11743;SDS011;5929;51.906;7.674;2023-04-09T11:10:31;16.08;;;11.15;;
11743;SDS011;5929;51.906;7.674;2023-04-09T11:12:58;15.25;;;10.63;;
11743;SDS011;5929;51.906;7.674;2023-04-09T11:15:26;14.40;;;10.30;;
11743;SDS011;5929;51.906;7.674;2023-04-09T11:17:53;14.32;;;10.70;;
11743;SDS011;5929;51.906;7.674;2023-04-09T11:20:24;14.50;;;10.93;;
11743;SDS011;5929;51.906;7.674;2023-04-09T11:22:51;15.18;;;10.90;;
11743;SDS011;5929;51.906;7.674;2023-04-09T11:25:20;15.63;;;11.48;;
11743;SDS011;5929;51.906;7.674;2023-04-09T11:27:48;15.13;;;11.23;;
11743;SDS011;5929;51.906;7.674;2023-04-09T11:30:15;14.30;;;11.05;;
11743;SDS011;5929;51.906;7.674;2023-04-09T11:32:44;14.38;;;10.57;;
11743;SDS011;5929;51.906;7.674;2023-04-09T11:35:14;13.63;;;10.55;;
11743;SDS011;5929;51.906;7.674;2023-04-09T11:37:42;14.32;;;11.48;;
11743;SDS011;5929;51.906;7.674;2023-04-09T11:40:13;13.13;;;10.77;;
11743;SDS011;5929;51.906;7.674;2023-04-09T11:42:42;14.02;;;10.40;;
11743;SDS011;5929;51.906;7.674;2023-04-09T11:45:09;15.02;;;10.82;;
11743;SDS011;5929;51.906;7.674;2023-04-09T11:47:37;14.00;;;10.75;;
11743;SDS011;5929;51.906;7.674;2023-04-09T11:50:09;16.02;;;12.45;;
11743;SDS011;5929;51.906;7.674;2023-04-09T11:52:37;16.13;;;12.00;;
11743;SDS011;5929;51.906;7.674;2023-04-09T11:55:05;16.40;;;11.07;;
11743;SDS011;5929;51.906;7.674;2023-04-09T11:57:37;16.60;;;11.60;;
11743;SDS011;5929;51.906;7.674;2023-04-09T12:00:07;14.02;;;11.60;;
11743;SDS011;5929;51.906;7.674;2023-04-09T12:02:36;14.75;;;11.82;;
11743;SDS011;5929;51.906;7.674;2023-04-09T12:07:34;14.65;;;11.45;;
11743;SDS011;5929;51.906;7.674;2023-04-09T12:10:03;17.25;;;12.55;;
11743;SDS011;5929;51.906;7.674;2023-04-09T12:12:30;14.73;;;11.63;;
11743;SDS011;5929;51.906;7.674;2023-04-09T12:15:06;13.48;;;9.98;;
11743;SDS011;5929;51.906;7.674;2023-04-09T12:17:36;14.95;;;10.98;;
11743;SDS011;5929;51.906;7.674;2023-04-09T12:20:03;15.55;;;11.80;;
11743;SDS011;5929;51.906;7.674;2023-04-09T12:22:32;13.60;;;10.93;;
11743;SDS011;5929;51.906;7.674;2023-04-09T12:25:03;13.93;;;11.50;;
11743;SDS011;5929;51.906;7.674;2023-04-09T12:27:31;13.48;;;11.38;;
11743;SDS011;5929;51.906;7.674;2023-04-09T12:29:58;14.85;;;11.25;;
11743;SDS011;5929;51.906;7.674;2023-04-09T12:32:24;11.63;;;9.20;;
11743;SDS011;5929;51.906;7.674;2023-04-09T12:34:52;12.02;;;8.85;;
11743;SDS011;5929;51.906;7.674;2023-04-09T12:37:19;10.93;;;8.95;;
11743;SDS011;5929;51.906;7.674;2023-04-09T12:39:48;13.43;;;10.48;;
11743;SDS011;5929;51.906;7.674;2023-04-09T12:42:16;14.05;;;10.52;;
11743;SDS011;5929;51.906;7.674;2023-04-09T12:44:43;13.88;;;10.70;;
11743;SDS011;5929;51.906;7.674;2023-04-09T12:47:10;13.05;;;10.00;;
11743;SDS011;5929;51.906;7.674;2023-04-09T12:49:37;11.65;;;10.02;;
11743;SDS011;5929;51.906;7.674;2023-04-09T12:52:04;12.85;;;9.65;;
11743;SDS011;5929;51.906;7.674;2023-04-09T12:54:33;12.10;;;8.77;;
11743;SDS011;5929;51.906;7.674;2023-04-09T12:57:02;11.43;;;9.13;;
11743;SDS011;5929;51.906;7.674;2023-04-09T12:59:30;12.30;;;9.20;;
11743;SDS011;5929;51.906;7.674;2023-04-09T13:01:57;11.73;;;8.43;;
11743;SDS011;5929;51.906;7.674;2023-04-09T13:04:24;11.30;;;8.20;;
11743;SDS011;5929;51.906;7.674;2023-04-09T13:06:50;12.13;;;8.32;;
11743;SDS011;5929;51.906;7.674;2023-04-09T13:09:17;11.65;;;8.90;;
11743;SDS011;5929;51.906;7.674;2023-04-09T13:11:44;13.50;;;9.55;;
11743;SDS011;5929;51.906;7.674;2023-04-09T13:14:11;12.02;;;8.27;;
11743;SDS011;5929;51.906;7.674;2023-04-09T13:16:39;10.70;;;8.18;;
11743;SDS011;5929;51.906;7.674;2023-04-09T13:19:06;12.02;;;8.82;;
11743;SDS011;5929;51.906;7.674;2023-04-09T13:21:33;11.35;;;8.10;;
11743;SDS011;5929;51.906;7.674;2023-04-09T13:24:01;11.85;;;8.63;;
11743;SDS011;5929;51.906;7.674;2023-04-09T13:26:28;11.38;;;8.15;;
11743;SDS011;5929;51.906;7.674;2023-04-09T13:28:56;11.32;;;7.93;;
11743;SDS011;5929;51.906;7.674;2023-04-09T13:31:22;11.88;;;8.77;;
11743;SDS011;5929;51.906;7.674;2023-04-09T13:33:51;11.65;;;8.45;;
11743;SDS011;5929;51.906;7.674;2023-04-09T13:36:17;12.45;;;8.60;;
11743;SDS011;5929;51.906;7.674;2023-04-09T13:38:44;12.45;;;8.73;;
11743;SDS011;5929;51.906;7.674;2023-04-09T13:41:12;11.02;;;7.95;;
11743;SDS011;5929;51.906;7.674;2023-04-09T13:43:40;12.30;;;8.68;;
11743;SDS011;5929;51.906;7.674;2023-04-09T13:46:07;12.85;;;8.48;;
11743;SDS011;5929;51.906;7.674;2023-04-09T13:48:34;11.30;;;8.98;;
11743;SDS011;5929;51.906;7.674;2023-04-09T13:51:03;12.80;;;8.25;;
11743;SDS011;5929;51.906;7.674;2023-04-09T13:53:30;12.43;;;8.73;;
11743;SDS011;5929;51.906;7.674;2023-04-09T13:55:57;10.82;;;8.27;;
11743;SDS011;5929;51.906;7.674;2023-04-09T13:58:24;11.18;;;7.95;;
11743;SDS011;5929;51.906;7.674;2023-04-09T14:00:51;12.35;;;8.75;;
11743;SDS011;5929;51.906;7.674;2023-04-09T14:03:18;12.23;;;8.00;;
11743;SDS011;5929;51.906;7.674;2023-04-09T14:05:45;12.07;;;8.80;;
11743;SDS011;5929;51.906;7.674;2023-04-09T14:08:14;11.77;;;8.82;;
11743;SDS011;5929;51.906;7.674;2023-04-09T14:10:41;11.25;;;8.65;;
11743;SDS011;5929;51.906;7.674;2023-04-09T14:13:08;10.57;;;7.60;;
11743;SDS011;5929;51.906;7.674;2023-04-09T14:15:36;12.52;;;8.30;;
11743;SDS011;5929;51.906;7.674;2023-04-09T14:18:03;13.23;;;8.98;;
11743;SDS011;5929;51.906;7.674;2023-04-09T14:20:33;11.82;;;8.60;;
11743;SDS011;5929;51.906;7.674;2023-04-09T14:23:00;12.15;;;8.63;;
11743;SDS011;5929;51.906;7.674;2023-04-09T14:25:28;14.02;;;9.15;;
11743;SDS011;5929;51.906;7.674;2023-04-09T14:27:55;12.65;;;8.85;;
11743;SDS011;5929;51.906;7.674;2023-04-09T14:30:23;12.63;;;9.07;;
11743;SDS011;5929;51.906;7.674;2023-04-09T14:32:49;10.77;;;8.35;;
11743;SDS011;5929;51.906;7.674;2023-04-09T14:35:16;12.90;;;9.40;;
11743;SDS011;5929;51.906;7.674;2023-04-09T14:37:44;11.80;;;8.70;;
11743;SDS011;5929;51.906;7.674;2023-04-09T14:40:11;11.85;;;8.73;;
11743;SDS011;5929;51.906;7.674;2023-04-09T14:42:40;12.77;;;8.80;;